Time;durP1;ratioP1;P1;durP2;ratioP2;P2;SDS_P1;SDS_P2;PMS_P1;PMS_P2;Temp;Humidity;BMP_temperature;BMP_pressure;BME280_temperature;BME280_humidity;BME280_pressure;Samples;Min_cycle;Max_cycle;Signal;HPM_P1;HPM_P2
2023/03/17 00:00:48;;;;;;;8.77;4.60;;;;;;;;;;5052794;28;20461;-87
2023/03/17 00:03:19;;;;;;;8.50;4.13;;;;;;;;;;5052859;28;20450;-86
2023/03/17 00:05:48;;;;;;;8.30;4.77;;;;;;;;;;5052660;28;20470;-88
2023/03/17 00:08:19;;;;;;;7.00;4.70;;;;;;;;;;5053101;28;20446;-87
2023/03/17 00:10:46;;;;;;;6.67;3.90;;;;;;;;;;5052808;28;20486;-87
2023/03/17 00:13:13;;;;;;;6.87;4.37;;;;;;;;;;5052819;28;20938;-87
2023/03/17 00:15:40;;;;;;;5.80;3.83;;;;;;;;;;5052903;28;20448;-88
2023/03/17 00:18:11;;;;;;;6.60;4.30;;;;;;;;;;5052979;28;20462;-87
2023/03/17 00:20:38;;;;;;;6.10;3.80;;;;;;;;;;5051389;28;20455;-87
2023/03/17 00:23:06;;;;;;;7.80;4.10;;;;;;;;;;5052725;28;20442;-87
2023/03/17 00:25:35;;;;;;;7.57;4.13;;;;;;;;;;5052689;28;20451;-87
2023/03/17 00:28:03;;;;;;;7.57;5.87;;;;;;;;;;5052959;28;20497;-87
2023/03/17 00:30:30;;;;;;;5.20;3.97;;;;;;;;;;5052531;28;20577;-88
2023/03/17 00:32:58;;;;;;;12.20;4.50;;;;;;;;;;5052599;28;20451;-88
2023/03/17 00:35:27;;;;;;;7.60;5.27;;;;;;;;;;5049527;28;20516;-87
2023/03/17 00:37:55;;;;;;;6.30;4.03;;;;;;;;;;5052489;28;20458;-86
2023/03/17 00:40:28;;;;;;;8.10;5.50;;;;;;;;;;5052208;28;20451;-85
2023/03/17 22:16:45;;;;;;;5.73;3.00;;;11.40;82.80;;;;;;5064457;27;20647;-76
2023/03/17 22:19:12;;;;;;;13.47;12.40;;;;;;;;;;5067485;28;20474;-78
2023/03/17 22:21:39;;;;;;;8.63;7.80;;;;;;;;;;5070148;28;20452;-77
2023/03/17 22:24:07;;;;;;;7.90;4.73;;;;;;;;;;5069854;28;20499;-78
2023/03/17 22:26:34;;;;;;;3.20;2.70;;;;;;;;;;5069913;28;20494;-77
2023/03/17 22:29:01;;;;;;;9.77;5.00;;;;;;;;;;5070098;28;20452;-77
2023/03/17 22:31:29;;;;;;;6.33;5.73;;;11.40;85.20;;;;;;5070128;28;20446;-77
2023/03/17 22:33:58;;;;;;;7.40;4.50;;;;;;;;;;5068939;28;20445;-77
2023/03/17 22:36:26;;;;;;;5.67;3.00;;;;;;;;;;5069861;28;20446;-77
2023/03/17 22:38:53;;;;;;;3.40;1.90;;;;;;;;;;5069777;28;20456;-78
2023/03/17 22:41:23;;;;;;;2.57;1.80;;;12.20;67.00;;;;;;5069016;28;20453;-78
2023/03/17 22:43:50;;;;;;;1.47;1.20;;;;;;;;;;5069693;28;20445;-77
2023/03/17 22:46:18;;;;;;;2.43;1.50;;;12.40;66.70;;;;;;5069522;28;20493;-77
2023/03/17 22:48:46;;;;;;;5.10;3.30;;;12.50;67.30;;;;;;5068437;28;20449;-77
2023/03/17 22:51:17;;;;;;;3.27;2.10;;;12.40;66.80;;;;;;5069483;28;20458;-77
2023/03/17 22:53:44;;;;;;;2.20;1.37;;;;;;;;;;5069660;28;20450;-78
2023/03/17 22:56:12;;;;;;;2.80;2.07;;;12.40;65.60;;;;;;5068469;28;20442;-77
2023/03/17 22:58:39;;;;;;;6.23;1.77;;;;;;;;;;5069183;28;20462;-77
2023/03/17 23:01:07;;;;;;;3.93;1.67;;;12.30;62.20;;;;;;5069600;28;20449;-78
2023/03/17 23:03:34;;;;;;;5.60;2.47;;;;;;;;;;5068238;28;20442;-78
2023/03/17 23:06:03;;;;;;;11.00;1.47;;;12.20;62.00;;;;;;5069443;28;20493;-78
2023/03/17 23:08:34;;;;;;;3.00;1.13;;;12.10;64.50;;;;;;5069433;28;20446;-77
2023/03/17 23:11:03;;;;;;;3.13;1.60;;;11.90;66.30;;;;;;5069388;28;20461;-78
2023/03/17 23:13:30;;;;;;;1.20;0.90;;;;;;;;;;5069201;28;20454;-77
2023/03/17 23:15:58;;;;;;;2.77;1.30;;;;;;;;;;5069036;28;20993;-77
2023/03/17 23:18:25;;;;;;;3.53;1.63;;;;;;;;;;5068921;28;21036;-78
2023/03/17 23:20:52;;;;;;;1.73;1.60;;;;;;;;;;5068195;28;20453;-78
2023/03/17 23:23:29;;;;;;;2.90;1.50;;;12.00;56.40;;;;;;5069404;28;20453;-77
2023/03/17 23:25:57;;;;;;;1.77;1.47;;;;;;;;;;5045727;28;20656;-78
2023/03/17 23:28:27;;;;;;;0.90;0.80;;;12.20;61.90;;;;;;5033390;28;20458;-78
2023/03/17 23:30:55;;;;;;;1.80;1.10;;;;;;;;;;5033365;28;20932;-78
2023/03/17 23:33:24;;;;;;;2.20;1.20;;;;;;;;;;5033521;28;20509;-78
2023/03/17 23:35:51;;;;;;;1.47;1.10;;;;;;;;;;5032435;28;20495;-78
2023/03/17 23:38:20;;;;;;;2.63;1.33;;;;;;;;;;5033503;28;20463;-78
2023/03/17 23:40:48;;;;;;;2.27;1.00;;;11.90;62.10;;;;;;5033330;28;20447;-79
2023/03/17 23:43:18;;;;;;;4.40;1.27;;;11.90;62.70;;;;;;5036644;28;20450;-80
2023/03/17 23:45:45;;;;;;;2.83;1.60;;;;;;;;;;5055427;28;20497;-79
2023/03/17 23:48:12;;;;;;;1.63;1.20;;;;;;;;;;5055322;28;20451;-80
2023/03/17 23:50:41;;;;;;;5.83;1.60;;;11.80;63.00;;;;;;5053752;28;20447;-79
2023/03/17 23:53:08;;;;;;;1.90;1.30;;;;;;;;;;5054895;28;20891;-79
2023/03/17 23:55:35;;;;;;;4.67;1.00;;;;;;;;;;5055188;28;20450;-78
2023/03/17 23:58:02;;;;;;;1.23;0.97;;;;;;;;;;5054962;28;20471;-79
